sensor_id;sensor_type;location;lat;lon;timestamp;P1;durP1;ratioP1;P2;durP2;ratioP2
17967;SDS011;9109;48.050;11.696;2022-09-24T03:47:07;5.77;;;2.40;;
17967;SDS011;9109;48.050;11.696;2022-09-24T03:50:09;5.43;;;3.13;;
17967;SDS011;9109;48.050;11.696;2022-09-24T03:53:11;4.07;;;2.60;;
17967;SDS011;9109;48.050;11.696;2022-09-24T03:56:14;4.70;;;2.60;;
17967;SDS011;9109;48.050;11.696;2022-09-24T03:59:15;3.27;;;2.40;;
17967;SDS011;9109;48.050;11.696;2022-09-24T04:02:19;4.60;;;2.73;;
17967;SDS011;9109;48.050;11.696;2022-09-24T04:05:21;3.90;;;2.43;;
17967;SDS011;9109;48.050;11.696;2022-09-24T04:08:23;4.40;;;2.60;;
17967;SDS011;9109;48.050;11.696;2022-09-24T04:11:25;5.10;;;2.70;;
17967;SDS011;9109;48.050;11.696;2022-09-24T04:14:27;4.53;;;2.50;;
17967;SDS011;9109;48.050;11.696;2022-09-24T04:17:30;3.47;;;2.43;;
17967;SDS011;9109;48.050;11.696;2022-09-24T04:20:32;4.10;;;2.70;;
17967;SDS011;9109;48.050;11.696;2022-09-24T04:23:34;4.37;;;2.77;;
17967;SDS011;9109;48.050;11.696;2022-09-24T04:26:36;4.67;;;2.80;;
17967;SDS011;9109;48.050;11.696;2022-09-24T04:29:38;5.57;;;2.60;;
17967;SDS011;9109;48.050;11.696;2022-09-24T04:32:44;4.13;;;2.57;;
17967;SDS011;9109;48.050;11.696;2022-09-24T04:35:46;4.80;;;2.67;;
17967;SDS011;9109;48.050;11.696;2022-09-24T04:38:49;6.40;;;2.60;;
17967;SDS011;9109;48.050;11.696;2022-09-24T04:41:52;7.80;;;2.83;;
17967;SDS011;9109;48.050;11.696;2022-09-24T04:44:54;4.20;;;2.67;;
17967;SDS011;9109;48.050;11.696;2022-09-24T04:48:06;11.37;;;2.50;;
17967;SDS011;9109;48.050;11.696;2022-09-24T04:55:22;5.37;;;2.37;;
17967;SDS011;9109;48.050;11.696;2022-09-24T04:59:31;4.07;;;2.83;;
17967;SDS011;9109;48.050;11.696;2022-09-24T05:03:20;5.33;;;3.00;;
17967;SDS011;9109;48.050;11.696;2022-09-24T05:06:49;3.97;;;2.20;;
17967;SDS011;9109;48.050;11.696;2022-09-24T05:10:54;7.27;;;2.57;;
17967;SDS011;9109;48.050;11.696;2022-09-24T05:18:25;6.70;;;2.50;;
17967;SDS011;9109;48.050;11.696;2022-09-24T05:21:47;4.93;;;2.90;;
17967;SDS011;9109;48.050;11.696;2022-09-24T05:25:31;13.80;;;3.30;;
17967;SDS011;9109;48.050;11.696;2022-09-24T05:32:46;6.30;;;3.07;;
17967;SDS011;9109;48.050;11.696;2022-09-24T05:36:44;3.50;;;2.47;;
17967;SDS011;9109;48.050;11.696;2022-09-24T05:40:33;3.87;;;2.90;;
17967;SDS011;9109;48.050;11.696;2022-09-24T06:03:44;5.37;;;3.20;;
17967;SDS011;9109;48.050;11.696;2022-09-24T06:11:08;4.33;;;2.80;;
17967;SDS011;9109;48.050;11.696;2022-09-24T06:26:37;3.87;;;2.70;;
17967;SDS011;9109;48.050;11.696;2022-09-24T06:34:00;7.23;;;3.00;;
17967;SDS011;9109;48.050;11.696;2022-09-24T06:55:38;7.73;;;3.40;;
17967;SDS011;9109;48.050;11.696;2022-09-24T07:19:11;6.93;;;4.40;;
17967;SDS011;9109;48.050;11.696;2022-09-24T07:27:08;7.47;;;3.50;;
17967;SDS011;9109;48.050;11.696;2022-09-24T07:50:10;5.03;;;3.20;;
17967;SDS011;9109;48.050;11.696;2022-09-24T07:54:56;5.63;;;3.42;;
17967;SDS011;9109;48.050;11.696;2022-09-24T07:57:42;8.10;;;3.13;;
17967;SDS011;9109;48.050;11.696;2022-09-24T08:01:10;8.10;;;3.00;;
17967;SDS011;9109;48.050;11.696;2022-09-24T08:09:04;7.35;;;3.30;;
17967;SDS011;9109;48.050;11.696;2022-09-24T10:19:26;2.85;;;2.17;;
17967;SDS011;9109;48.050;11.696;2022-09-24T10:23:01;8.38;;;2.70;;
17967;SDS011;9109;48.050;11.696;2022-09-24T10:26:49;5.78;;;2.58;;
17967;SDS011;9109;48.050;11.696;2022-09-24T10:30:15;7.53;;;2.83;;
17967;SDS011;9109;48.050;11.696;2022-09-24T10:33:52;4.38;;;2.50;;
17967;SDS011;9109;48.050;11.696;2022-09-24T10:44:40;7.63;;;2.88;;
17967;SDS011;9109;48.050;11.696;2022-09-24T10:49:06;4.82;;;2.58;;
17967;SDS011;9109;48.050;11.696;2022-09-24T10:55:05;4.38;;;2.35;;
17967;SDS011;9109;48.050;11.696;2022-09-24T10:56:31;4.03;;;2.53;;
17967;SDS011;9109;48.050;11.696;2022-09-24T11:00:25;3.88;;;2.50;;
17967;SDS011;9109;48.050;11.696;2022-09-24T11:12:12;5.68;;;2.50;;
17967;SDS011;9109;48.050;11.696;2022-09-24T11:15:56;3.65;;;2.35;;
17967;SDS011;9109;48.050;11.696;2022-09-24T11:19:21;3.13;;;2.15;;
17967;SDS011;9109;48.050;11.696;2022-09-24T11:34:32;4.97;;;2.97;;
17967;SDS011;9109;48.050;11.696;2022-09-24T11:38:01;7.97;;;2.83;;
17967;SDS011;9109;48.050;11.696;2022-09-24T11:41:30;5.10;;;3.20;;
17967;SDS011;9109;48.050;11.696;2022-09-24T11:52:43;5.68;;;3.40;;
17967;SDS011;9109;48.050;11.696;2022-09-24T11:56:03;6.25;;;3.53;;
17967;SDS011;9109;48.050;11.696;2022-09-24T11:59:36;6.95;;;3.70;;
17967;SDS011;9109;48.050;11.696;2022-09-24T13:42:22;8.52;;;3.97;;
17967;SDS011;9109;48.050;11.696;2022-09-24T13:45:53;6.60;;;3.38;;
17967;SDS011;9109;48.050;11.696;2022-09-24T13:53:51;8.75;;;3.63;;
17967;SDS011;9109;48.050;11.696;2022-09-24T13:57:56;7.38;;;3.75;;
17967;SDS011;9109;48.050;11.696;2022-09-24T14:57:35;6.88;;;3.17;;
17967;SDS011;9109;48.050;11.696;2022-09-24T15:43:15;5.13;;;3.55;;
17967;SDS011;9109;48.050;11.696;2022-09-24T16:02:38;4.68;;;3.53;;
17967;SDS011;9109;48.050;11.696;2022-09-24T16:06:45;8.45;;;3.83;;
17967;SDS011;9109;48.050;11.696;2022-09-24T16:10:10;5.18;;;3.55;;
17967;SDS011;9109;48.050;11.696;2022-09-24T16:13:48;7.78;;;3.97;;
17967;SDS011;9109;48.050;11.696;2022-09-24T16:17:28;8.00;;;4.05;;
17967;SDS011;9109;48.050;11.696;2022-09-24T16:21:05;9.98;;;4.65;;
17967;SDS011;9109;48.050;11.696;2022-09-24T16:32:06;11.48;;;5.30;;
17967;SDS011;9109;48.050;11.696;2022-09-24T16:36:03;14.68;;;6.75;;
17967;SDS011;9109;48.050;11.696;2022-09-24T16:39:51;7.30;;;5.60;;
17967;SDS011;9109;48.050;11.696;2022-09-24T16:43:28;9.75;;;5.35;;
17967;SDS011;9109;48.050;11.696;2022-09-24T16:47:21;12.82;;;7.40;;
17967;SDS011;9109;48.050;11.696;2022-09-24T16:50:49;13.18;;;8.23;;
17967;SDS011;9109;48.050;11.696;2022-09-24T16:59:20;21.70;;;13.02;;
17967;SDS011;9109;48.050;11.696;2022-09-24T17:02:25;31.08;;;15.40;;
17967;SDS011;9109;48.050;11.696;2022-09-24T17:05:55;18.48;;;7.03;;
17967;SDS011;9109;48.050;11.696;2022-09-24T17:09:49;18.45;;;10.70;;
17967;SDS011;9109;48.050;11.696;2022-09-24T17:13:43;30.65;;;14.10;;
17967;SDS011;9109;48.050;11.696;2022-09-24T17:17:26;20.05;;;11.38;;
17967;SDS011;9109;48.050;11.696;2022-09-24T17:21:09;17.63;;;10.68;;
17967;SDS011;9109;48.050;11.696;2022-09-24T17:24:47;14.77;;;7.70;;
17967;SDS011;9109;48.050;11.696;2022-09-24T17:28:20;14.25;;;9.32;;
17967;SDS011;9109;48.050;11.696;2022-09-24T17:31:24;12.20;;;8.05;;
17967;SDS011;9109;48.050;11.696;2022-09-24T17:34:31;9.35;;;5.65;;
17967;SDS011;9109;48.050;11.696;2022-09-24T17:37:33;14.55;;;5.85;;
17967;SDS011;9109;48.050;11.696;2022-09-24T17:40:35;13.50;;;6.30;;
17967;SDS011;9109;48.050;11.696;2022-09-24T17:43:37;10.50;;;5.85;;
17967;SDS011;9109;48.050;11.696;2022-09-24T17:46:50;9.88;;;6.05;;
17967;SDS011;9109;48.050;11.696;2022-09-24T17:49:59;10.25;;;6.10;;
17967;SDS011;9109;48.050;11.696;2022-09-24T17:53:09;10.07;;;5.47;;
17967;SDS011;9109;48.050;11.696;2022-09-24T17:56:12;24.23;;;11.38;;
17967;SDS011;9109;48.050;11.696;2022-09-24T17:59:18;10.93;;;6.40;;
17967;SDS011;9109;48.050;11.696;2022-09-24T18:06:08;11.93;;;6.75;;
17967;SDS011;9109;48.050;11.696;2022-09-24T18:18:12;14.20;;;7.18;;
17967;SDS011;9109;48.050;11.696;2022-09-24T18:25:22;14.52;;;8.55;;
17967;SDS011;9109;48.050;11.696;2022-09-24T18:28:28;15.80;;;9.32;;
17967;SDS011;9109;48.050;11.696;2022-09-24T18:31:31;18.92;;;9.80;;
17967;SDS011;9109;48.050;11.696;2022-09-24T18:34:35;18.60;;;10.13;;
17967;SDS011;9109;48.050;11.696;2022-09-24T18:37:42;15.13;;;9.48;;
17967;SDS011;9109;48.050;11.696;2022-09-24T18:45:59;19.25;;;10.93;;
17967;SDS011;9109;48.050;11.696;2022-09-24T18:48:31;15.15;;;10.02;;
17967;SDS011;9109;48.050;11.696;2022-09-24T18:52:06;13.20;;;7.57;;
17967;SDS011;9109;48.050;11.696;2022-09-24T18:59:20;16.08;;;8.82;;
17967;SDS011;9109;48.050;11.696;2022-09-24T19:03:01;15.82;;;8.98;;
17967;SDS011;9109;48.050;11.696;2022-09-24T19:07:13;13.95;;;7.90;;
17967;SDS011;9109;48.050;11.696;2022-09-24T19:10:24;14.73;;;8.05;;
17967;SDS011;9109;48.050;11.696;2022-09-24T19:17:47;9.18;;;5.63;;
17967;SDS011;9109;48.050;11.696;2022-09-24T19:21:11;13.27;;;6.25;;
17967;SDS011;9109;48.050;11.696;2022-09-24T19:24:32;9.35;;;6.80;;
17967;SDS011;9109;48.050;11.696;2022-09-24T19:28:11;12.57;;;6.78;;
17967;SDS011;9109;48.050;11.696;2022-09-24T19:35:38;9.15;;;5.75;;
17967;SDS011;9109;48.050;11.696;2022-09-24T19:38:49;9.00;;;6.22;;
17967;SDS011;9109;48.050;11.696;2022-09-24T19:47:04;11.30;;;7.28;;
17967;SDS011;9109;48.050;11.696;2022-09-24T20:13:50;9.13;;;6.03;;
17967;SDS011;9109;48.050;11.696;2022-09-24T20:17:59;9.90;;;6.10;;
17967;SDS011;9109;48.050;11.696;2022-09-24T20:21:32;12.20;;;5.55;;
17967;SDS011;9109;48.050;11.696;2022-09-24T20:24:50;8.45;;;5.10;;
17967;SDS011;9109;48.050;11.696;2022-09-24T20:28:18;9.32;;;5.85;;
17967;SDS011;9109;48.050;11.696;2022-09-24T20:31:43;10.73;;;4.82;;
17967;SDS011;9109;48.050;11.696;2022-09-24T20:38:46;7.97;;;4.88;;
17967;SDS011;9109;48.050;11.696;2022-09-24T20:42:02;10.50;;;4.90;;
17967;SDS011;9109;48.050;11.696;2022-09-24T20:45:17;11.20;;;4.63;;
17967;SDS011;9109;48.050;11.696;2022-09-24T20:48:34;10.05;;;4.65;;
17967;SDS011;9109;48.050;11.696;2022-09-24T20:51:45;9.88;;;4.85;;
17967;SDS011;9109;48.050;11.696;2022-09-24T20:54:56;11.82;;;4.75;;
17967;SDS011;9109;48.050;11.696;2022-09-24T20:58:01;9.15;;;5.00;;
17967;SDS011;9109;48.050;11.696;2022-09-24T21:01:12;8.00;;;4.78;;
17967;SDS011;9109;48.050;11.696;2022-09-24T21:04:14;7.22;;;4.50;;
17967;SDS011;9109;48.050;11.696;2022-09-24T21:07:20;8.32;;;4.85;;
17967;SDS011;9109;48.050;11.696;2022-09-24T21:10:25;7.82;;;4.40;;
17967;SDS011;9109;48.050;11.696;2022-09-24T21:13:27;17.60;;;5.38;;
17967;SDS011;9109;48.050;11.696;2022-09-24T21:16:39;12.13;;;5.45;;
17967;SDS011;9109;48.050;11.696;2022-09-24T21:19:44;6.50;;;4.82;;
17967;SDS011;9109;48.050;11.696;2022-09-24T21:22:52;7.88;;;4.82;;
17967;SDS011;9109;48.050;11.696;2022-09-24T21:26:06;8.10;;;4.80;;
17967;SDS011;9109;48.050;11.696;2022-09-24T21:29:20;6.75;;;4.20;;
17967;SDS011;9109;48.050;11.696;2022-09-24T21:32:41;7.70;;;5.10;;
17967;SDS011;9109;48.050;11.696;2022-09-24T21:35:51;8.85;;;5.43;;
17967;SDS011;9109;48.050;11.696;2022-09-24T21:38:57;10.30;;;5.38;;
17967;SDS011;9109;48.050;11.696;2022-09-24T21:42:29;6.65;;;4.88;;
17967;SDS011;9109;48.050;11.696;2022-09-24T21:46:00;7.90;;;5.10;;
17967;SDS011;9109;48.050;11.696;2022-09-24T21:49:35;10.00;;;4.95;;
17967;SDS011;9109;48.050;11.696;2022-09-24T21:52:51;7.88;;;4.90;;
17967;SDS011;9109;48.050;11.696;2022-09-24T21:55:57;8.80;;;5.43;;
17967;SDS011;9109;48.050;11.696;2022-09-24T21:59:16;22.05;;;6.03;;
17967;SDS011;9109;48.050;11.696;2022-09-24T22:02:43;8.00;;;5.25;;
17967;SDS011;9109;48.050;11.696;2022-09-24T22:06:04;7.22;;;5.07;;
17967;SDS011;9109;48.050;11.696;2022-09-24T22:09:19;9.00;;;5.22;;
17967;SDS011;9109;48.050;11.696;2022-09-24T22:12:27;9.05;;;5.20;;
17967;SDS011;9109;48.050;11.696;2022-09-24T22:15:36;7.00;;;4.95;;
17967;SDS011;9109;48.050;11.696;2022-09-24T22:19:01;9.15;;;5.10;;
17967;SDS011;9109;48.050;11.696;2022-09-24T22:22:33;7.88;;;4.63;;
17967;SDS011;9109;48.050;11.696;2022-09-24T22:25:42;7.80;;;5.10;;
17967;SDS011;9109;48.050;11.696;2022-09-24T22:28:52;10.50;;;4.60;;
17967;SDS011;9109;48.050;11.696;2022-09-24T22:32:06;7.38;;;4.43;;
17967;SDS011;9109;48.050;11.696;2022-09-24T22:39:08;9.18;;;4.85;;
17967;SDS011;9109;48.050;11.696;2022-09-24T22:42:21;7.65;;;4.75;;
17967;SDS011;9109;48.050;11.696;2022-09-24T22:45:48;7.43;;;4.90;;
17967;SDS011;9109;48.050;11.696;2022-09-24T22:49:10;6.18;;;4.38;;
17967;SDS011;9109;48.050;11.696;2022-09-24T22:52:24;6.88;;;4.97;;
17967;SDS011;9109;48.050;11.696;2022-09-24T22:55:46;7.50;;;4.82;;
17967;SDS011;9109;48.050;11.696;2022-09-24T22:59:11;7.75;;;4.47;;
